Time;durP1;ratioP1;P1;durP2;ratioP2;P2;SDS_P1;SDS_P2;PMS_P1;PMS_P2;Temp;Humidity;BMP_temperature;BMP_pressure;BME280_temperature;BME280_humidity;BME280_pressure;Samples;Min_cycle;Max_cycle;Signal;HPM_P1;HPM_P2
2022/10/13 00:00:49;;;;;;;7.38;0.85;;;;;;;16.02;97.86;101329.94;7389242;19;20551;-67
2022/10/13 00:03:16;;;;;;;6.00;0.90;;;;;;;16.00;98.16;101329.31;7388462;19;20461;-68
2022/10/13 00:05:46;;;;;;;5.28;1.08;;;;;;;16.00;98.27;101316.03;7389159;19;20022;-67
2022/10/13 00:08:18;;;;;;;8.25;1.52;;;;;;;15.98;98.46;101305.59;7388229;19;20039;-67
2022/10/13 00:10:47;;;;;;;4.45;0.70;;;;;;;15.96;98.39;101291.66;7387013;19;20042;-66
2022/10/13 00:13:15;;;;;;;8.32;0.90;;;;;;;15.95;98.80;101299.81;7388491;19;20381;-66
2022/10/13 00:15:44;;;;;;;4.65;0.70;;;;;;;15.92;99.16;101302.81;7386911;19;20010;-67
2022/10/13 00:18:12;;;;;;;5.18;0.90;;;;;;;15.89;99.18;101305.81;7388475;19;20015;-67
2022/10/13 00:20:47;;;;;;;4.10;0.85;;;;;;;15.86;99.50;101301.66;7389583;19;20015;-67
2022/10/13 00:23:15;;;;;;;7.22;1.33;;;;;;;15.85;99.50;101293.91;7388870;19;20014;-66
2022/10/13 00:25:44;;;;;;;4.18;0.95;;;;;;;15.83;99.88;101299.38;7386830;19;20475;-67
2022/10/13 00:28:12;;;;;;;5.18;0.93;;;;;;;15.81;99.92;101304.84;7387214;19;20598;-68
2022/10/13 00:30:39;;;;;;;6.95;1.10;;;;;;;15.82;100.00;101308.34;7388998;19;20039;-67
2022/10/13 00:33:07;;;;;;;7.80;1.38;;;;;;;15.81;100.00;101309.34;7386449;19;20015;-67
2022/10/13 00:35:39;;;;;;;10.27;1.25;;;;;;;15.79;100.00;101309.53;7387828;19;20014;-66
2022/10/13 00:38:06;;;;;;;5.60;1.02;;;;;;;15.79;100.00;101309.53;7388440;19;20038;-66
2022/10/13 00:40:41;;;;;;;6.00;1.00;;;;;;;15.80;100.00;101308.50;7387670;19;20372;-66
2022/10/13 00:43:47;;;;;;;5.13;1.58;;;;;;;15.81;100.00;101291.59;7386022;19;20015;-66
2022/10/13 00:46:14;;;;;;;5.18;1.17;;;;;;;15.81;100.00;101293.41;7380267;19;20038;-66
2022/10/13 00:48:43;;;;;;;7.53;1.48;;;;;;;15.81;100.00;101298.72;7389759;19;20014;-66
2022/10/13 00:51:13;;;;;;;3.53;0.93;;;;;;;15.81;100.00;101310.16;7385555;19;20042;-66
2022/10/13 00:53:42;;;;;;;5.90;1.35;;;;;;;15.80;100.00;101307.69;7386391;19;20014;-68
2022/10/13 00:56:12;;;;;;;10.20;1.25;;;;;;;15.79;100.00;101306.88;7384224;19;20600;-67
2022/10/13 00:58:40;;;;;;;4.13;1.40;;;;;;;15.78;100.00;101302.56;7386010;19;20020;-67
2022/10/13 01:01:07;;;;;;;8.55;2.05;;;;;;;15.77;100.00;101308.03;7387010;19;20006;-66
2022/10/13 01:03:35;;;;;;;5.30;1.33;;;;;;;15.77;100.00;101314.19;7388356;19;20027;-66
2022/10/13 01:06:04;;;;;;;4.85;1.73;;;;;;;15.78;100.00;101307.03;7386793;19;20483;-66
2022/10/13 01:08:32;;;;;;;5.68;1.23;;;;;;;15.77;100.00;101308.88;7387207;19;20018;-66
2022/10/13 01:11:35;;;;;;;6.68;1.20;;;;;;;15.77;100.00;101303.56;7385532;19;20018;-66
2022/10/13 01:14:25;;;;;;;5.67;1.20;;;;;;;15.76;100.00;101303.72;7386723;19;20487;-66
2022/10/13 01:16:55;;;;;;;4.22;1.23;;;;;;;15.76;100.00;101306.38;7386504;19;20043;-66
2022/10/13 01:19:51;;;;;;;4.72;1.30;;;;;;;15.75;100.00;101302.91;7387023;19;20463;-66
2022/10/13 01:22:35;;;;;;;7.25;1.35;;;;;;;15.74;100.00;101295.13;7387037;19;20010;-66
2022/10/13 01:25:16;;;;;;;5.05;1.10;;;;;;;15.74;100.00;101297.78;7383553;19;20511;-66
2022/10/13 01:28:01;;;;;;;7.22;1.40;;;;;;;15.74;100.00;101281.88;7386645;19;20014;-66
2022/10/13 01:30:35;;;;;;;4.65;1.52;;;;;;;15.74;100.00;101288.00;7385846;19;20010;-66
2022/10/13 01:33:11;;;;;;;5.68;1.60;;;;;;;15.73;100.00;101281.03;7384256;19;20472;-66
2022/10/13 01:35:40;;;;;;;4.55;1.50;;;;;;;15.73;100.00;101272.25;7385268;19;20046;-66
2022/10/13 01:38:32;;;;;;;3.47;1.40;;;;;;;15.72;100.00;101276.72;7386339;19;20029;-67
2022/10/13 01:41:32;;;;;;;6.85;1.73;;;;;;;15.72;100.00;101275.91;7383099;19;20019;-66
2022/10/13 01:44:15;;;;;;;4.03;1.25;;;;;;;15.70;100.00;101269.94;7385153;19;20044;-66
2022/10/13 01:46:44;;;;;;;5.53;1.95;;;;;;;15.70;100.00;101269.94;7386307;19;20266;-66
2022/10/13 01:49:15;;;;;;;6.88;1.58;;;;;;;15.70;100.00;101261.97;7384980;19;20018;-66
2022/10/13 01:51:44;;;;;;;5.32;2.03;;;;;;;15.68;100.00;101262.16;7384030;19;20035;-66
2022/10/13 01:54:11;;;;;;;5.85;1.55;;;;;;;15.67;100.00;101264.97;7386205;19;20704;-67
2022/10/13 01:56:37;;;;;;;4.68;1.50;;;;;;;15.67;100.00;101257.03;7384157;19;20031;-66
2022/10/13 01:59:13;;;;;;;3.88;1.33;;;;;;;15.67;100.00;101257.84;7385089;19;20014;-66
2022/10/13 02:02:14;;;;;;;5.38;2.00;;;;;;;15.66;100.00;101261.50;7385200;19;20018;-66
2022/10/13 02:05:01;;;;;;;4.88;1.67;;;;;;;15.65;100.00;101261.66;7385024;19;20039;-65
2022/10/13 02:07:48;;;;;;;4.03;1.75;;;;;;;15.65;100.00;101265.16;7385465;19;20018;-67
2022/10/13 02:10:33;;;;;;;5.65;2.08;;;;;;;15.66;100.00;101271.28;7386145;19;20011;-67
2022/10/13 02:13:04;;;;;;;6.50;2.10;;;;;;;15.65;100.00;101266.97;7382568;19;20307;-67
2022/10/13 02:15:41;;;;;;;10.95;2.50;;;;;;;15.65;100.00;101269.63;7384896;19;20015;-67
2022/10/13 02:18:11;;;;;;;4.03;2.28;;;;;;;15.65;100.00;101265.16;7382936;19;20479;-67
2022/10/13 02:20:41;;;;;;;6.40;2.10;;;;;;;15.67;100.00;101267.63;7383731;19;20018;-67
2022/10/13 02:23:11;;;;;;;9.10;2.40;;;;;;;15.67;100.00;101259.66;7383587;19;20286;-67
2022/10/13 02:25:39;;;;;;;7.40;2.67;;;;;;;15.68;100.00;101267.47;7384157;19;20048;-67
2022/10/13 02:28:08;;;;;;;5.95;2.20;;;;;;;15.67;100.00;101260.50;7383309;19;20490;-67
2022/10/13 02:30:38;;;;;;;5.80;2.45;;;;;;;15.68;100.00;101263.97;7380541;19;20046;-67
2022/10/13 02:33:05;;;;;;;4.60;2.15;;;;;;;15.68;100.00;101269.28;7382363;19;20014;-67
2022/10/13 02:35:33;;;;;;;7.00;3.15;;;;;;;15.68;100.00;101270.13;7384759;19;20007;-67
2022/10/13 02:37:59;;;;;;;5.43;2.80;;;;;;;15.68;100.00;101275.44;7383630;19;20275;-67
2022/10/13 02:40:27;;;;;;;7.82;2.78;;;;;;;15.68;100.00;101277.25;7383989;19;20033;-67
2022/10/13 02:42:54;;;;;;;7.43;2.80;;;;;;;15.68;100.00;101277.25;7379968;19;20010;-67
2022/10/13 02:45:21;;;;;;;9.25;3.95;;;;;;;15.68;100.00;101271.94;7385374;19;20041;-67
2022/10/13 02:47:48;;;;;;;8.32;3.42;;;;;;;15.68;100.00;101262.16;7384061;19;20014;-66
2022/10/13 02:50:14;;;;;;;8.60;3.33;;;;;;;15.68;100.00;101264.81;7382927;19;20014;-66
2022/10/13 02:52:41;;;;;;;8.57;3.30;;;;;;;15.67;100.00;101257.03;7382227;19;20038;-66
2022/10/13 02:55:08;;;;;;;8.38;3.25;;;;;;;15.64;100.00;101254.72;7383828;19;20011;-68
2022/10/13 02:57:35;;;;;;;12.38;3.35;;;;;;;15.64;100.00;101254.72;7382173;19;20014;-66
2022/10/13 03:00:04;;;;;;;7.03;3.25;;;;;;;15.62;100.00;101252.25;7383809;19;20717;-66
2022/10/13 03:02:31;;;;;;;6.13;3.35;;;;;;;15.62;100.00;101246.09;7383146;19;20039;-65
2022/10/13 03:04:58;;;;;;;9.75;3.22;;;;;;;15.60;100.00;101248.94;7386122;19;20368;-68
2022/10/13 03:07:25;;;;;;;8.60;3.58;;;;;;;15.60;100.00;101246.28;7391334;19;20045;-66
2022/10/13 03:09:51;;;;;;;5.55;2.88;;;;;;;15.59;100.00;101244.66;7389395;19;20039;-68
2022/10/13 03:12:18;;;;;;;9.68;3.47;;;;;;;15.60;100.00;101242.78;7387543;19;20031;-67
2022/10/13 03:14:45;;;;;;;8.60;3.28;;;;;;;15.60;100.00;101243.63;7390144;19;20018;-65
2022/10/13 03:17:12;;;;;;;8.25;3.72;;;;;;;15.61;100.00;101233.84;7385545;19;20014;-66
2022/10/13 03:19:39;;;;;;;8.98;3.85;;;;;;;15.62;100.00;101230.19;7390081;19;20029;-66
2022/10/13 03:22:06;;;;;;;8.30;3.58;;;;;;;15.62;100.00;101233.66;7392428;19;20044;-66
2022/10/13 03:24:33;;;;;;;7.97;3.58;;;;;;;15.63;100.00;101223.88;7388421;19;20546;-67
2022/10/13 03:26:59;;;;;;;8.85;3.88;;;;;;;15.64;100.00;101218.41;7390236;19;20038;-65
2022/10/13 03:29:26;;;;;;;9.38;3.72;;;;;;;15.65;100.00;101230.66;7389470;19;20038;-66
2022/10/13 03:31:53;;;;;;;10.02;3.92;;;;;;;15.65;100.00;101229.81;7390771;19;20014;-66
2022/10/13 03:34:20;;;;;;;9.93;4.00;;;;;;;15.65;100.00;101229.81;7389769;19;20014;-66
2022/10/13 03:36:46;;;;;;;9.82;3.58;;;;;;;15.64;100.00;101207.81;7389940;19;20014;-66
2022/10/13 03:39:13;;;;;;;7.15;3.75;;;;;;;15.64;100.00;101217.59;7389055;19;20407;-65
2022/10/13 03:41:40;;;;;;;8.57;4.50;;;;;;;15.61;100.00;101209.97;7388898;19;20834;-66
2022/10/13 03:44:11;;;;;;;11.95;4.47;;;;;;;15.59;100.00;101215.47;7388121;19;20014;-66
2022/10/13 03:46:38;;;;;;;8.50;4.20;;;;;;;15.57;100.00;101216.63;7387540;19;20010;-66
2022/10/13 03:49:10;;;;;;;11.85;4.95;;;;;;;15.56;100.00;101212.31;7387532;19;20043;-66
2022/10/13 03:51:37;;;;;;;12.43;4.05;;;;;;;15.56;100.00;101209.66;7388192;19;20034;-66
2022/10/13 03:54:04;;;;;;;11.45;4.18;;;;;;;15.56;100.00;101214.97;7389641;19;20324;-64
2022/10/13 03:56:31;;;;;;;10.02;4.45;;;;;;;15.57;100.00;101212.16;7387929;19;20021;-66
2022/10/13 03:58:59;;;;;;;9.65;4.78;;;;;;;15.57;100.00;101213.97;7387875;19;20460;-65
2022/10/13 04:01:33;;;;;;;10.57;4.53;;;;;;;15.58;100.00;101202.38;7388063;19;20014;-66
2022/10/13 04:04:01;;;;;;;10.20;5.05;;;;;;;15.57;100.00;101206.84;7389387;19;20078;-66
2022/10/13 04:06:29;;;;;;;11.80;5.05;;;;;;;15.58;100.00;101195.25;7388843;19;20042;-65
2022/10/13 04:09:05;;;;;;;11.07;5.20;;;;;;;15.57;100.00;101196.22;7390595;19;20501;-66
2022/10/13 04:11:32;;;;;;;11.52;4.47;;;;;;;15.55;100.00;101203.53;7387317;19;20014;-66
2022/10/13 04:13:59;;;;;;;10.48;4.07;;;;;;;15.54;100.00;101209.88;7389803;19;20949;-66
2022/10/13 04:16:28;;;;;;;9.38;4.93;;;;;;;15.55;100.00;101192.91;7384821;19;20018;-66
2022/10/13 04:19:10;;;;;;;14.30;5.10;;;;;;;15.53;100.00;101188.81;7389976;19;20018;-67
2022/10/13 04:21:38;;;;;;;11.30;4.50;;;;;;;15.52;100.00;101193.28;7389172;19;20486;-66
2022/10/13 04:24:10;;;;;;;11.23;4.90;;;;;;;15.52;100.00;101189.81;7389229;19;20279;-66
2022/10/13 04:26:38;;;;;;;;;;;;;;;15.52;100.00;101182.69;7388387;19;20012;-66
2022/10/13 04:29:11;;;;;;;9.05;4.93;;;;;;;15.49;100.00;101185.63;7389328;19;19942;-66
2022/10/13 04:31:41;;;;;;;13.63;5.68;;;;;;;15.48;100.00;101184.00;7387735;19;20034;-65
2022/10/13 04:34:09;;;;;;;13.65;5.80;;;;;;;15.47;100.00;101184.16;7388724;19;20058;-66
2022/10/13 04:36:35;;;;;;;14.55;6.15;;;;;;;15.46;100.00;101174.56;7388682;19;20416;-66
2022/10/13 04:39:05;;;;;;;14.43;6.30;;;;;;;15.46;100.00;101169.25;7388781;19;20031;-66
2022/10/13 04:41:32;;;;;;;12.85;6.18;;;;;;;15.45;100.00;101155.16;7386575;19;20037;-66
2022/10/13 04:44:01;;;;;;;11.73;5.30;;;;;;;15.45;100.00;101151.69;7388288;19;20014;-66
2022/10/13 04:46:28;;;;;;;13.93;5.70;;;;;;;15.43;100.00;101149.22;7387769;19;20014;-66
2022/10/13 04:48:56;;;;;;;11.20;5.72;;;;;;;15.44;100.00;101145.53;7388563;19;20062;-66
2022/10/13 04:51:24;;;;;;;14.07;5.93;;;;;;;15.43;100.00;101140.44;7387141;19;20026;-66
2022/10/13 04:53:59;;;;;;;13.23;5.95;;;;;;;15.43;100.00;101132.47;7388234;19;20014;-66
2022/10/13 04:56:27;;;;;;;13.30;5.55;;;;;;;15.43;100.00;101127.19;7385078;19;20050;-66
2022/10/13 04:58:54;;;;;;;14.27;5.50;;;;;;;15.41;100.00;101119.41;7388078;19;20397;-66
2022/10/13 05:01:23;;;;;;;13.00;6.63;;;;;;;15.40;100.00;101120.38;7385062;19;20034;-66
2022/10/13 05:04:00;;;;;;;14.70;6.18;;;;;;;15.40;100.00;101125.69;7382536;19;20455;-66
2022/10/13 05:06:36;;;;;;;14.75;6.05;;;;;;;15.39;100.00;101127.53;7388259;19;20022;-66
2022/10/13 05:09:23;;;;;;;13.68;5.97;;;;;;;15.40;100.00;101131.81;7388113;19;20014;-66
2022/10/13 05:11:50;;;;;;;10.68;5.93;;;;;;;15.41;100.00;101130.00;7386073;19;20351;-66
2022/10/13 05:14:16;;;;;;;17.13;6.38;;;;;;;15.43;100.00;101124.53;7387221;19;20050;-66
2022/10/13 05:16:43;;;;;;;16.75;6.53;;;;;;;15.46;100.00;101124.16;7386600;19;20022;-66
2022/10/13 05:19:10;;;;;;;13.75;5.95;;;;;;;15.46;100.00;101125.00;7387170;19;20022;-66
2022/10/13 05:21:37;;;;;;;18.48;6.25;;;;;;;15.46;100.00;101132.13;7387274;19;20600;-66
2022/10/13 05:24:05;;;;;;;12.93;5.78;;;;;;;15.43;100.00;101135.97;7386329;19;20015;-66
2022/10/13 05:26:34;;;;;;;12.60;6.45;;;;;;;15.45;100.00;101130.47;7380000;19;20451;-66
2022/10/13 05:29:03;;;;;;;14.57;6.97;;;;;;;15.44;100.00;101134.94;7385666;19;20042;-67
2022/10/13 05:31:39;;;;;;;17.67;6.97;;;;;;;15.47;100.00;101139.91;7386071;19;20392;-66
2022/10/13 05:34:05;;;;;;;18.70;6.55;;;;;;;15.48;100.00;101135.44;7385302;19;20015;-66
2022/10/13 05:36:34;;;;;;;13.23;6.70;;;;;;;15.46;100.00;101132.94;7386770;19;20010;-66
2022/10/13 05:39:07;;;;;;;16.08;6.65;;;;;;;15.48;100.00;101135.44;7386907;19;20018;-65
2022/10/13 05:41:34;;;;;;;16.92;6.80;;;;;;;15.47;100.00;101136.44;7383137;19;20023;-66
2022/10/13 05:44:03;;;;;;;19.75;7.40;;;;;;;15.48;100.00;101136.25;7386158;19;20054;-67
2022/10/13 05:46:30;;;;;;;14.77;6.75;;;;;;;15.49;100.00;101139.75;7385916;19;20391;-66
2022/10/13 05:48:57;;;;;;;17.38;7.18;;;;;;;15.50;100.00;101144.84;7386462;19;20067;-66
2022/10/13 05:51:35;;;;;;;17.98;7.10;;;;;;;15.52;100.00;101147.38;7383081;19;20392;-66
2022/10/13 05:54:10;;;;;;;18.98;7.32;;;;;;;15.53;100.00;101159.63;7385383;19;20014;-65
2022/10/13 05:56:41;;;;;;;15.18;7.25;;;;;;;15.53;100.00;101156.97;7383815;19;20015;-65
2022/10/13 05:59:15;;;;;;;19.10;7.57;;;;;;;15.53;100.00;101152.50;7385087;19;20035;-66
2022/10/13 06:01:42;;;;;;;18.25;7.75;;;;;;;15.54;100.00;101162.13;7382450;19;20022;-66
2022/10/13 06:04:22;;;;;;;15.27;6.93;;;;;;;15.54;100.00;101162.13;7385016;19;20018;-65
2022/10/13 06:06:49;;;;;;;19.73;8.35;;;;;;;15.56;100.00;101160.09;7385483;19;20726;-66
2022/10/13 06:09:17;;;;;;;17.92;7.22;;;;;;;15.58;100.00;101157.28;7385807;19;20018;-66
2022/10/13 06:11:43;;;;;;;18.30;8.15;;;;;;;15.57;100.00;101159.09;7383978;19;20019;-65
2022/10/13 06:14:10;;;;;;;18.58;7.82;;;;;;;15.60;100.00;101163.22;7385245;19;20512;-65
2022/10/13 06:16:37;;;;;;;19.02;7.88;;;;;;;15.60;100.00;101157.91;7385102;19;20011;-66
2022/10/13 06:19:10;;;;;;;20.30;8.68;;;;;;;15.60;100.00;101163.22;7385399;19;20026;-67
2022/10/13 06:21:37;;;;;;;20.92;8.10;;;;;;;15.61;100.00;101163.03;7384862;19;20022;-67
2022/10/13 06:24:04;;;;;;;19.85;8.13;;;;;;;15.60;100.00;101161.38;7383339;19;20014;-65
2022/10/13 06:26:31;;;;;;;20.83;8.30;;;;;;;15.60;100.00;101161.38;7383375;19;20007;-66
2022/10/13 06:29:06;;;;;;;20.70;8.65;;;;;;;15.60;100.00;101158.72;7385142;19;20498;-66
2022/10/13 06:31:33;;;;;;;19.23;8.13;;;;;;;15.60;100.00;101168.50;7383462;19;20019;-66
2022/10/13 06:34:00;;;;;;;18.08;8.35;;;;;;;15.60;100.00;101153.44;7382959;19;20474;-65
2022/10/13 06:36:27;;;;;;;19.08;8.15;;;;;;;15.59;100.00;101146.50;7384038;19;20015;-66
2022/10/13 06:38:53;;;;;;;21.30;9.18;;;;;;;15.60;100.00;101152.59;7382890;19;20356;-65
2022/10/13 06:41:20;;;;;;;16.20;7.22;;;;;;;15.58;100.00;101144.00;7385580;19;20601;-66
2022/10/13 06:43:47;;;;;;;24.65;8.43;;;;;;;15.57;100.00;101143.19;7391074;19;20018;-65
2022/10/13 06:46:14;;;;;;;20.20;8.07;;;;;;;15.56;100.00;101138.88;7389363;19;20031;-66
2022/10/13 06:48:41;;;;;;;24.58;9.73;;;;;;;15.56;100.00;101133.56;7391025;19;20500;-67
2022/10/13 06:51:10;;;;;;;18.15;7.93;;;;;;;15.55;100.00;101133.72;7388234;19;20365;-66
2022/10/13 06:53:37;;;;;;;18.85;8.13;;;;;;;15.56;100.00;101128.25;7389268;19;20440;-66
2022/10/13 06:56:06;;;;;;;19.80;9.30;;;;;;;15.54;100.00;101129.47;7389670;19;20051;-66
2022/10/13 06:58:34;;;;;;;18.52;8.15;;;;;;;15.54;100.00;101135.59;7390930;19;20022;-66
2022/10/13 07:01:01;;;;;;;16.67;7.85;;;;;;;15.54;100.00;101129.47;7389370;19;20121;-67
2022/10/13 07:03:28;;;;;;;19.02;9.05;;;;;;;15.53;100.00;101135.75;7391317;19;20024;-66
2022/10/13 07:06:03;;;;;;;20.95;8.35;;;;;;;15.51;100.00;101129.75;7390390;19;20014;-67
2022/10/13 07:08:31;;;;;;;20.58;8.05;;;;;;;15.49;100.00;101132.59;7389555;19;20030;-67
2022/10/13 07:10:58;;;;;;;23.95;9.32;;;;;;;15.50;100.00;101134.25;7390674;19;20017;-67
2022/10/13 07:13:25;;;;;;;21.90;9.50;;;;;;;15.51;100.00;101135.06;7389024;19;20010;-67
2022/10/13 07:15:51;;;;;;;22.38;9.45;;;;;;;15.51;100.00;101135.94;7388768;19;20014;-67
2022/10/13 07:18:18;;;;;;;21.42;8.90;;;;;;;15.50;100.00;101128.94;7389954;19;20038;-66
2022/10/13 07:20:45;;;;;;;18.65;8.85;;;;;;;15.52;100.00;101140.22;7391244;19;20042;-67
2022/10/13 07:23:12;;;;;;;25.23;9.73;;;;;;;15.53;100.00;101136.59;7389826;19;20047;-67
2022/10/13 07:25:39;;;;;;;25.05;10.13;;;;;;;15.53;100.00;101139.25;7390971;19;20011;-66
2022/10/13 07:28:06;;;;;;;22.70;9.07;;;;;;;15.53;100.00;101138.41;7388492;19;20014;-67
2022/10/13 07:30:33;;;;;;;19.05;9.10;;;;;;;15.54;100.00;101137.41;7391197;19;20010;-67
2022/10/13 07:33:00;;;;;;;19.65;10.60;;;;;;;15.53;100.00;101138.41;7388651;19;20038;-67
2022/10/13 07:35:26;;;;;;;19.98;9.23;;;;;;;15.53;100.00;101141.88;7391001;19;20079;-67
2022/10/13 07:37:56;;;;;;;20.27;9.27;;;;;;;15.55;100.00;101147.00;7389731;19;20018;-67
2022/10/13 07:40:23;;;;;;;22.75;9.85;;;;;;;15.54;100.00;101148.03;7388294;19;20760;-67
2022/10/13 07:42:50;;;;;;;22.48;9.38;;;;;;;15.53;100.00;101146.38;7383981;19;20042;-67
2022/10/13 07:45:17;;;;;;;21.33;9.48;;;;;;;15.55;100.00;101155.78;7385928;19;20035;-67
2022/10/13 07:47:43;;;;;;;21.70;8.98;;;;;;;15.55;100.00;101150.47;7386129;19;20035;-67
2022/10/13 07:50:10;;;;;;;18.33;8.55;;;;;;;15.57;100.00;101158.28;7388413;19;20045;-67
2022/10/13 07:52:38;;;;;;;21.25;8.45;;;;;;;15.58;100.00;101160.75;7387649;19;20007;-66
2022/10/13 07:55:05;;;;;;;22.00;8.75;;;;;;;15.60;100.00;101149.94;7390893;19;20043;-67
2022/10/13 07:57:32;;;;;;;20.63;8.90;;;;;;;15.63;100.00;101152.25;7389113;19;20014;-67
2022/10/13 07:59:59;;;;;;;22.13;9.85;;;;;;;15.64;100.00;101157.41;7389097;19;20011;-66
2022/10/13 08:02:26;;;;;;;24.52;9.95;;;;;;;15.65;100.00;101150.25;7390429;19;20348;-68
2022/10/13 08:04:53;;;;;;;19.50;9.13;;;;;;;15.65;100.00;101158.19;7389165;19;20042;-67
2022/10/13 08:07:19;;;;;;;20.58;11.18;;;;;;;15.66;100.00;101159.84;7390069;19;20038;-66
2022/10/13 08:09:47;;;;;;;24.70;9.57;;;;;;;15.67;100.00;101153.56;7389532;19;20014;-68
2022/10/13 08:12:13;;;;;;;19.40;9.80;;;;;;;15.68;100.00;101153.38;7389459;19;20018;-66
2022/10/13 08:14:41;;;;;;;21.10;8.82;;;;;;;15.71;100.00;101150.38;7389015;19;20054;-68
2022/10/13 08:17:08;;;;;;;18.15;8.90;;;;;;;15.73;100.00;101144.88;7388057;19;20018;-66
2022/10/13 08:19:35;;;;;;;22.67;9.85;;;;;;;15.76;100.00;101153.31;7389041;19;20036;-67
2022/10/13 08:22:01;;;;;;;20.05;9.13;;;;;;;15.80;100.00;101156.41;7390499;19;20039;-69
2022/10/13 08:24:34;;;;;;;18.88;9.40;;;;;;;15.82;100.00;101159.72;7384782;19;20434;-66
2022/10/13 08:27:01;;;;;;;19.45;9.00;;;;;;;15.85;100.00;101163.88;7388845;19;20006;-67
2022/10/13 08:29:28;;;;;;;19.15;8.80;;;;;;;15.88;100.00;101166.16;7388092;19;20635;-67
2022/10/13 08:31:55;;;;;;;16.25;8.75;;;;;;;15.89;100.00;101165.16;7388312;19;20006;-70
2022/10/13 08:34:23;;;;;;;17.45;8.45;;;;;;;15.90;100.00;101161.50;7386902;19;20018;-68
2022/10/13 08:36:53;;;;;;;20.05;8.20;;;;;;;15.91;100.00;101166.63;7390422;19;20051;-66
2022/10/13 08:39:21;;;;;;;20.80;9.05;;;;;;;15.92;100.00;101162.13;7386006;19;20651;-67
2022/10/13 08:41:48;;;;;;;17.05;8.20;;;;;;;15.92;100.00;101159.47;7385992;19;20467;-67
2022/10/13 08:44:26;;;;;;;15.07;8.00;;;;;;;15.95;100.00;101151.19;7387548;19;20014;-67
2022/10/13 08:47:40;;;;;;;16.95;7.95;;;;;;;15.94;100.00;101162.78;7387045;19;20024;-67
2022/10/13 08:50:23;;;;;;;20.17;8.38;;;;;;;15.91;100.00;101160.47;7386838;19;20054;-68
2022/10/13 08:52:56;;;;;;;16.38;8.00;;;;;;;15.90;100.00;101156.19;7387258;19;20014;-67
2022/10/13 08:55:36;;;;;;;;;;;;;;;15.89;100.00;101151.88;7389013;19;20010;-67
2022/10/13 08:58:13;;;;;;;15.85;8.98;;;;;;;15.86;100.00;101149.56;7387039;19;19918;-65
2022/10/13 09:00:41;;;;;;;19.70;8.95;;;;;;;15.85;100.00;101151.41;7387726;19;20475;-64
2022/10/13 09:03:21;;;;;;;17.75;9.25;;;;;;;15.86;100.00;101152.22;7386057;19;20018;-64
2022/10/13 09:05:59;;;;;;;19.15;8.50;;;;;;;15.86;100.00;101147.75;7388207;19;20562;-64
2022/10/13 09:08:33;;;;;;;20.02;9.40;;;;;;;15.84;100.00;101147.13;7388771;19;20014;-65
2022/10/13 09:11:01;;;;;;;23.00;8.70;;;;;;;15.83;100.00;101142.81;7386824;19;20027;-65
2022/10/13 09:13:28;;;;;;;18.92;9.23;;;;;;;15.79;100.00;101139.69;7385951;19;20025;-65
2022/10/13 09:15:56;;;;;;;17.42;8.20;;;;;;;15.77;100.00;101133.72;7388485;19;20010;-64
2022/10/13 09:18:30;;;;;;;20.00;8.07;;;;;;;15.76;100.00;101132.06;7388541;19;20043;-64
2022/10/13 09:21:18;;;;;;;17.65;8.57;;;;;;;15.75;100.00;101140.22;7384896;19;20010;-65
2022/10/13 09:23:45;;;;;;;21.90;9.27;;;;;;;15.71;100.00;101130.97;7386883;19;20015;-65
2022/10/13 09:26:36;;;;;;;24.33;8.00;;;;;;;15.68;100.00;101140.13;7385081;19;20490;-64
2022/10/13 09:29:09;;;;;;;19.90;8.77;;;;;;;15.67;100.00;101133.16;7386742;19;20451;-65
2022/10/13 09:31:37;;;;;;;19.52;8.68;;;;;;;15.68;100.00;101132.16;7385405;19;20017;-65
2022/10/13 09:34:19;;;;;;;17.15;8.73;;;;;;;15.69;99.99;101138.28;7385543;19;20018;-68
2022/10/13 09:37:00;;;;;;;18.45;8.90;;;;;;;15.67;99.91;101142.94;7387969;19;20007;-65
2022/10/13 09:39:29;;;;;;;18.20;8.60;;;;;;;15.68;99.48;101141.94;7386866;19;20015;-65
2022/10/13 09:42:20;;;;;;;22.33;8.75;;;;;;;15.65;99.51;101143.09;7384292;19;20042;-63
2022/10/13 09:45:13;;;;;;;16.75;8.20;;;;;;;15.66;99.69;101149.25;7386436;19;20409;-65
2022/10/13 09:47:47;;;;;;;17.10;8.88;;;;;;;15.60;99.03;101155.25;7385903;19;20511;-64
2022/10/13 09:50:21;;;;;;;17.98;8.00;;;;;;;15.58;98.36;101158.09;7385716;19;20438;-65
2022/10/13 09:52:48;;;;;;;19.60;7.55;;;;;;;15.55;98.33;101154.97;7387167;19;20033;-64
2022/10/13 09:55:29;;;;;;;15.10;7.28;;;;;;;15.47;97.99;101152.34;7383775;19;20543;-64
2022/10/13 09:58:04;;;;;;;17.02;7.03;;;;;;;15.43;97.94;101149.22;7384369;19;20419;-64
2022/10/13 10:00:32;;;;;;;18.27;7.80;;;;;;;15.42;97.66;101147.56;7383259;19;20134;-64
2022/10/13 10:03:14;;;;;;;16.67;7.72;;;;;;;15.40;97.73;101142.44;7385225;19;20010;-65
2022/10/13 10:05:50;;;;;;;16.67;7.95;;;;;;;15.38;97.93;101143.63;7385165;19;20018;-65
2022/10/13 10:08:48;;;;;;;19.25;8.10;;;;;;;15.37;98.31;101140.16;7385686;19;20152;-65
2022/10/13 10:11:39;;;;;;;17.75;8.63;;;;;;;15.34;98.86;101145.78;7383518;19;20119;-64
2022/10/13 10:14:25;;;;;;;20.08;8.30;;;;;;;15.34;99.08;101145.78;7385401;19;20044;-64
2022/10/13 10:17:01;;;;;;;18.73;8.20;;;;;;;15.35;99.17;101142.13;7385880;19;20014;-65
2022/10/13 10:19:33;;;;;;;18.65;8.15;;;;;;;15.37;99.28;101148.09;7383649;19;20034;-66
2022/10/13 10:22:15;;;;;;;19.45;8.43;;;;;;;15.39;99.16;101148.72;7386400;19;20010;-65
2022/10/13 10:25:00;;;;;;;20.90;9.02;;;;;;;15.39;98.95;101159.34;7385089;19;20443;-67
2022/10/13 10:27:26;;;;;;;16.50;8.73;;;;;;;15.38;98.09;101154.22;7383611;19;20017;-64
2022/10/13 10:30:01;;;;;;;16.42;8.07;;;;;;;15.37;98.39;101160.53;7384269;19;20038;-64
2022/10/13 10:32:51;;;;;;;18.52;9.15;;;;;;;15.38;98.95;101157.72;7385297;19;20035;-66
2022/10/13 10:35:30;;;;;;;19.27;8.82;;;;;;;15.38;99.04;101176.28;7382655;19;20479;-64
2022/10/13 10:38:13;;;;;;;20.48;8.80;;;;;;;15.38;98.65;101180.75;7384748;19;20373;-66
2022/10/13 10:41:04;;;;;;;18.48;9.00;;;;;;;15.40;98.76;101186.69;7384310;19;20018;-63
2022/10/13 10:43:47;;;;;;;17.23;8.88;;;;;;;15.43;99.03;101193.47;7382164;19;20014;-66
2022/10/13 10:46:21;;;;;;;22.00;9.30;;;;;;;15.44;98.45;101173.94;7381007;19;20015;-65
2022/10/13 10:48:54;;;;;;;17.63;8.32;;;;;;;15.44;98.22;101173.94;7385455;19;20651;-65
2022/10/13 10:51:27;;;;;;;18.88;8.65;;;;;;;15.43;98.44;101180.22;7383091;19;20011;-65
2022/10/13 10:54:08;;;;;;;21.15;9.30;;;;;;;15.44;98.58;101180.03;7381210;19;20049;-65
2022/10/13 10:56:43;;;;;;;19.48;9.18;;;;;;;15.43;98.82;101181.06;7382218;19;20026;-65
2022/10/13 10:59:25;;;;;;;18.15;8.90;;;;;;;15.47;99.12;101181.50;7383808;19;20015;-65
2022/10/13 11:02:07;;;;;;;20.45;9.43;;;;;;;15.48;99.26;101178.69;7383786;19;20010;-65
2022/10/13 11:04:46;;;;;;;21.73;8.67;;;;;;;15.52;99.54;101176.53;7382068;19;20022;-64
2022/10/13 11:07:22;;;;;;;21.27;9.23;;;;;;;15.52;98.46;101172.06;7383958;19;20011;-64
2022/10/13 11:09:51;;;;;;;16.35;8.35;;;;;;;15.56;97.35;101173.34;7381827;19;20015;-64
2022/10/13 11:12:18;;;;;;;19.60;7.80;;;;;;;15.55;96.27;101171.69;7383336;19;20380;-65
2022/10/13 11:14:45;;;;;;;19.80;8.77;;;;;;;15.54;96.61;101169.25;7381216;19;20014;-64
2022/10/13 11:17:33;;;;;;;18.40;8.50;;;;;;;15.56;95.12;101162.75;7382556;19;20653;-64
2022/10/13 11:19:59;;;;;;;15.80;7.57;;;;;;;15.54;95.27;101156.81;7384112;19;20499;-65
2022/10/13 11:22:30;;;;;;;13.68;7.57;;;;;;;15.53;95.93;101152.50;7384057;19;20394;-65
2022/10/13 11:25:20;;;;;;;14.25;7.05;;;;;;;15.54;96.15;101155.97;7383849;19;20015;-64
2022/10/13 11:27:47;;;;;;;18.88;8.68;;;;;;;15.56;96.32;101157.44;7389197;19;20014;-66
2022/10/13 11:30:50;;;;;;;20.55;9.35;;;;;;;15.60;97.00;101163.22;7390935;19;20007;-65
2022/10/13 11:33:37;;;;;;;21.88;8.88;;;;;;;15.67;97.32;101153.56;7388372;19;20011;-65
2022/10/13 11:36:41;;;;;;;21.52;9.60;;;;;;;15.70;97.79;101142.56;7387758;19;20019;-65